Gateway, Arkansas
Current Conditions -  °F | °C
As of 11:57 AM on Thursday 23 Oct 2014 (Local Time) from KROG Reporting Station
Overcast Overcast  
Wind Chill: 56°   Ceiling: 8000
Heat Index: 56°   Visibility: 10mi
Dew Point: 52°   Wind: 6mph
Humidity: 87%   Direction: 200°SSW
Pressure: 30.2"   Gusts: NA
Location:  36.49°N, 93.93°W
Report Text: KROG 231657Z 20005KT 10SM OVC080 13/11 A3020 RMK AO2 RAE51 SLP225 P0000 T01330111
Loading
Personal Weather Stations






























Interactive Weather Map
Tropical Storm Tracking
New forecast layout! Learn more

10-Day Weather Forecast

Advertisements
Track Severe Weather on mobile